sensor_id;sensor_type;location;lat;lon;timestamp;P1;durP1;ratioP1;P2;durP2;ratioP2
27543;SDS011;17996;51.056;3.656;2022-08-03T00:01:28;12.52;;;2.47;;
27543;SDS011;17996;51.056;3.656;2022-08-03T00:03:53;21.23;;;3.25;;
27543;SDS011;17996;51.056;3.656;2022-08-03T00:06:19;8.45;;;2.05;;
27543;SDS011;17996;51.056;3.656;2022-08-03T00:08:45;8.82;;;2.47;;
27543;SDS011;17996;51.056;3.656;2022-08-03T00:11:10;9.05;;;2.33;;
27543;SDS011;17996;51.056;3.656;2022-08-03T00:13:36;8.98;;;2.08;;
27543;SDS011;17996;51.056;3.656;2022-08-03T00:16:02;12.60;;;3.17;;
27543;SDS011;17996;51.056;3.656;2022-08-03T00:18:28;14.32;;;3.17;;
27543;SDS011;17996;51.056;3.656;2022-08-03T00:20:53;10.85;;;2.55;;
27543;SDS011;17996;51.056;3.656;2022-08-03T00:23:19;15.05;;;2.60;;
27543;SDS011;17996;51.056;3.656;2022-08-03T00:25:44;15.02;;;2.90;;
27543;SDS011;17996;51.056;3.656;2022-08-03T00:28:10;12.43;;;2.50;;
27543;SDS011;17996;51.056;3.656;2022-08-03T00:30:36;10.25;;;2.63;;
27543;SDS011;17996;51.056;3.656;2022-08-03T00:33:02;13.38;;;2.55;;
27543;SDS011;17996;51.056;3.656;2022-08-03T00:35:28;6.43;;;2.30;;
27543;SDS011;17996;51.056;3.656;2022-08-03T00:37:54;11.43;;;2.67;;
27543;SDS011;17996;51.056;3.656;2022-08-03T00:40:20;7.78;;;2.95;;
27543;SDS011;17996;51.056;3.656;2022-08-03T00:42:53;7.20;;;2.80;;
27543;SDS011;17996;51.056;3.656;2022-08-03T00:45:21;9.32;;;2.17;;
27543;SDS011;17996;51.056;3.656;2022-08-03T00:47:54;8.98;;;2.42;;
27543;SDS011;17996;51.056;3.656;2022-08-03T00:50:21;13.18;;;2.88;;
27543;SDS011;17996;51.056;3.656;2022-08-03T00:52:49;11.52;;;2.55;;
27543;SDS011;17996;51.056;3.656;2022-08-03T00:55:18;11.77;;;3.45;;
27543;SDS011;17996;51.056;3.656;2022-08-03T00:57:44;8.23;;;2.20;;
27543;SDS011;17996;51.056;3.656;2022-08-03T01:00:11;8.63;;;1.73;;
27543;SDS011;17996;51.056;3.656;2022-08-03T01:05:06;8.98;;;2.47;;
27543;SDS011;17996;51.056;3.656;2022-08-03T01:11:00;7.70;;;2.35;;
27543;SDS011;17996;51.056;3.656;2022-08-03T01:18:38;10.13;;;2.90;;
27543;SDS011;17996;51.056;3.656;2022-08-03T01:21:13;10.18;;;3.45;;
27543;SDS011;17996;51.056;3.656;2022-08-03T01:26:41;14.55;;;2.83;;
27543;SDS011;17996;51.056;3.656;2022-08-03T01:35:09;7.35;;;2.20;;
27543;SDS011;17996;51.056;3.656;2022-08-03T01:42:32;8.48;;;1.95;;
27543;SDS011;17996;51.056;3.656;2022-08-03T01:45:00;6.93;;;2.67;;
27543;SDS011;17996;51.056;3.656;2022-08-03T01:47:27;11.63;;;2.20;;
27543;SDS011;17996;51.056;3.656;2022-08-03T01:49:54;8.93;;;2.00;;
27543;SDS011;17996;51.056;3.656;2022-08-03T01:52:21;9.30;;;2.95;;
27543;SDS011;17996;51.056;3.656;2022-08-03T01:54:49;8.45;;;1.58;;
27543;SDS011;17996;51.056;3.656;2022-08-03T01:57:17;7.88;;;2.63;;
27543;SDS011;17996;51.056;3.656;2022-08-03T01:59:46;8.05;;;2.20;;
27543;SDS011;17996;51.056;3.656;2022-08-03T02:02:14;8.77;;;2.30;;
27543;SDS011;17996;51.056;3.656;2022-08-03T02:04:44;11.88;;;2.75;;
27543;SDS011;17996;51.056;3.656;2022-08-03T02:07:13;8.07;;;1.90;;
27543;SDS011;17996;51.056;3.656;2022-08-03T02:09:40;11.90;;;3.10;;
27543;SDS011;17996;51.056;3.656;2022-08-03T02:12:09;7.53;;;2.10;;
27543;SDS011;17996;51.056;3.656;2022-08-03T02:14:36;9.05;;;2.15;;
27543;SDS011;17996;51.056;3.656;2022-08-03T02:17:06;8.48;;;1.90;;
27543;SDS011;17996;51.056;3.656;2022-08-03T02:19:32;6.85;;;1.92;;
27543;SDS011;17996;51.056;3.656;2022-08-03T02:21:59;4.75;;;1.85;;
27543;SDS011;17996;51.056;3.656;2022-08-03T02:24:26;7.80;;;2.15;;
27543;SDS011;17996;51.056;3.656;2022-08-03T02:26:52;13.90;;;2.70;;
27543;SDS011;17996;51.056;3.656;2022-08-03T02:29:21;8.98;;;2.10;;
27543;SDS011;17996;51.056;3.656;2022-08-03T02:31:49;9.93;;;2.33;;
27543;SDS011;17996;51.056;3.656;2022-08-03T02:34:16;9.15;;;2.72;;
27543;SDS011;17996;51.056;3.656;2022-08-03T02:36:45;10.43;;;2.40;;
27543;SDS011;17996;51.056;3.656;2022-08-03T02:39:14;11.68;;;2.90;;
27543;SDS011;17996;51.056;3.656;2022-08-03T02:41:45;11.18;;;2.35;;
27543;SDS011;17996;51.056;3.656;2022-08-03T02:44:13;11.30;;;2.47;;
27543;SDS011;17996;51.056;3.656;2022-08-03T02:46:45;8.07;;;2.20;;
27543;SDS011;17996;51.056;3.656;2022-08-03T02:49:13;13.88;;;3.65;;
27543;SDS011;17996;51.056;3.656;2022-08-03T02:51:42;10.35;;;2.40;;
27543;SDS011;17996;51.056;3.656;2022-08-03T02:54:09;10.27;;;2.38;;
27543;SDS011;17996;51.056;3.656;2022-08-03T02:56:38;7.38;;;2.38;;
27543;SDS011;17996;51.056;3.656;2022-08-03T02:59:06;8.98;;;2.70;;
27543;SDS011;17996;51.056;3.656;2022-08-03T03:01:33;12.35;;;2.80;;
27543;SDS011;17996;51.056;3.656;2022-08-03T03:03:59;6.30;;;2.63;;
27543;SDS011;17996;51.056;3.656;2022-08-03T03:06:26;10.20;;;2.53;;
27543;SDS011;17996;51.056;3.656;2022-08-03T03:08:53;10.23;;;3.10;;
27543;SDS011;17996;51.056;3.656;2022-08-03T03:11:21;9.85;;;2.65;;
27543;SDS011;17996;51.056;3.656;2022-08-03T03:13:47;7.72;;;3.10;;
27543;SDS011;17996;51.056;3.656;2022-08-03T03:16:15;9.15;;;2.42;;
27543;SDS011;17996;51.056;3.656;2022-08-03T03:18:42;6.07;;;2.40;;
27543;SDS011;17996;51.056;3.656;2022-08-03T03:21:09;12.87;;;2.83;;
27543;SDS011;17996;51.056;3.656;2022-08-03T03:23:37;8.48;;;2.65;;
27543;SDS011;17996;51.056;3.656;2022-08-03T03:26:04;11.60;;;2.58;;
27543;SDS011;17996;51.056;3.656;2022-08-03T03:28:31;11.55;;;2.53;;
27543;SDS011;17996;51.056;3.656;2022-08-03T03:30:57;9.63;;;2.25;;
27543;SDS011;17996;51.056;3.656;2022-08-03T03:33:24;10.45;;;2.70;;
27543;SDS011;17996;51.056;3.656;2022-08-03T03:35:50;7.63;;;2.90;;
27543;SDS011;17996;51.056;3.656;2022-08-03T03:38:17;8.82;;;2.42;;
27543;SDS011;17996;51.056;3.656;2022-08-03T03:40:43;11.23;;;2.80;;
27543;SDS011;17996;51.056;3.656;2022-08-03T03:43:10;9.20;;;2.88;;
27543;SDS011;17996;51.056;3.656;2022-08-03T03:45:36;6.35;;;1.98;;
27543;SDS011;17996;51.056;3.656;2022-08-03T03:48:04;11.50;;;3.15;;
27543;SDS011;17996;51.056;3.656;2022-08-03T03:50:31;9.73;;;3.10;;
27543;SDS011;17996;51.056;3.656;2022-08-03T03:52:58;7.65;;;2.35;;
27543;SDS011;17996;51.056;3.656;2022-08-03T03:55:23;7.82;;;2.17;;
27543;SDS011;17996;51.056;3.656;2022-08-03T03:57:49;11.48;;;2.58;;
27543;SDS011;17996;51.056;3.656;2022-08-03T04:00:15;8.23;;;2.92;;
27543;SDS011;17996;51.056;3.656;2022-08-03T04:02:42;7.38;;;2.28;;
27543;SDS011;17996;51.056;3.656;2022-08-03T04:05:09;9.82;;;2.55;;
27543;SDS011;17996;51.056;3.656;2022-08-03T04:08:04;12.32;;;3.35;;
27543;SDS011;17996;51.056;3.656;2022-08-03T04:13:51;10.70;;;2.65;;
27543;SDS011;17996;51.056;3.656;2022-08-03T04:16:42;11.32;;;2.72;;
27543;SDS011;17996;51.056;3.656;2022-08-03T04:19:13;7.68;;;2.55;;
27543;SDS011;17996;51.056;3.656;2022-08-03T04:21:42;4.60;;;2.40;;
27543;SDS011;17996;51.056;3.656;2022-08-03T04:24:12;11.93;;;2.50;;
27543;SDS011;17996;51.056;3.656;2022-08-03T04:26:39;17.65;;;3.25;;
27543;SDS011;17996;51.056;3.656;2022-08-03T04:29:07;6.78;;;2.50;;
27543;SDS011;17996;51.056;3.656;2022-08-03T04:31:34;15.45;;;3.20;;
27543;SDS011;17996;51.056;3.656;2022-08-03T04:34:02;12.18;;;2.63;;
27543;SDS011;17996;51.056;3.656;2022-08-03T04:36:30;10.27;;;3.03;;
27543;SDS011;17996;51.056;3.656;2022-08-03T04:39:04;9.48;;;2.33;;
27543;SDS011;17996;51.056;3.656;2022-08-03T04:41:34;12.05;;;3.45;;
27543;SDS011;17996;51.056;3.656;2022-08-03T04:44:00;14.63;;;2.72;;
27543;SDS011;17996;51.056;3.656;2022-08-03T04:46:36;11.40;;;2.63;;
27543;SDS011;17996;51.056;3.656;2022-08-03T04:49:03;8.23;;;2.70;;
27543;SDS011;17996;51.056;3.656;2022-08-03T04:51:31;14.02;;;3.10;;
27543;SDS011;17996;51.056;3.656;2022-08-03T04:53:58;12.35;;;3.30;;
27543;SDS011;17996;51.056;3.656;2022-08-03T04:56:24;7.18;;;2.58;;
27543;SDS011;17996;51.056;3.656;2022-08-03T04:58:50;6.03;;;2.22;;
27543;SDS011;17996;51.056;3.656;2022-08-03T05:01:16;14.45;;;3.00;;
27543;SDS011;17996;51.056;3.656;2022-08-03T05:03:44;15.27;;;2.83;;
27543;SDS011;17996;51.056;3.656;2022-08-03T05:06:11;8.20;;;2.75;;
27543;SDS011;17996;51.056;3.656;2022-08-03T05:08:37;13.10;;;2.78;;
27543;SDS011;17996;51.056;3.656;2022-08-03T05:11:03;15.80;;;3.95;;
27543;SDS011;17996;51.056;3.656;2022-08-03T05:13:28;13.68;;;3.58;;
27543;SDS011;17996;51.056;3.656;2022-08-03T05:15:54;13.57;;;3.90;;
27543;SDS011;17996;51.056;3.656;2022-08-03T05:18:19;14.88;;;3.08;;
27543;SDS011;17996;51.056;3.656;2022-08-03T05:20:45;12.60;;;3.28;;
27543;SDS011;17996;51.056;3.656;2022-08-03T05:23:11;12.55;;;3.30;;
27543;SDS011;17996;51.056;3.656;2022-08-03T05:25:37;11.65;;;3.03;;
27543;SDS011;17996;51.056;3.656;2022-08-03T05:28:02;12.30;;;2.85;;
27543;SDS011;17996;51.056;3.656;2022-08-03T05:30:28;14.13;;;3.45;;
27543;SDS011;17996;51.056;3.656;2022-08-03T05:32:54;16.25;;;2.85;;
27543;SDS011;17996;51.056;3.656;2022-08-03T05:35:20;14.43;;;2.50;;
27543;SDS011;17996;51.056;3.656;2022-08-03T05:37:45;12.20;;;3.25;;
27543;SDS011;17996;51.056;3.656;2022-08-03T05:40:11;8.70;;;2.80;;
27543;SDS011;17996;51.056;3.656;2022-08-03T05:42:37;9.82;;;3.45;;
27543;SDS011;17996;51.056;3.656;2022-08-03T05:45:03;12.13;;;3.03;;
27543;SDS011;17996;51.056;3.656;2022-08-03T05:47:48;19.58;;;3.65;;
27543;SDS011;17996;51.056;3.656;2022-08-03T05:50:15;14.27;;;3.58;;
27543;SDS011;17996;51.056;3.656;2022-08-03T05:52:41;13.73;;;3.25;;
27543;SDS011;17996;51.056;3.656;2022-08-03T05:55:08;14.82;;;3.67;;
27543;SDS011;17996;51.056;3.656;2022-08-03T05:57:34;11.02;;;3.10;;
27543;SDS011;17996;51.056;3.656;2022-08-03T06:00:01;10.65;;;2.85;;
27543;SDS011;17996;51.056;3.656;2022-08-03T06:02:31;7.07;;;2.30;;
27543;SDS011;17996;51.056;3.656;2022-08-03T06:04:56;16.50;;;3.08;;
27543;SDS011;17996;51.056;3.656;2022-08-03T06:07:22;9.02;;;2.47;;
27543;SDS011;17996;51.056;3.656;2022-08-03T06:09:48;9.48;;;2.63;;
27543;SDS011;17996;51.056;3.656;2022-08-03T06:12:15;10.77;;;2.40;;
27543;SDS011;17996;51.056;3.656;2022-08-03T06:14:40;17.17;;;3.15;;
27543;SDS011;17996;51.056;3.656;2022-08-03T06:17:06;9.30;;;3.10;;
27543;SDS011;17996;51.056;3.656;2022-08-03T06:19:33;11.40;;;2.85;;
27543;SDS011;17996;51.056;3.656;2022-08-03T06:21:58;12.60;;;2.72;;
27543;SDS011;17996;51.056;3.656;2022-08-03T06:24:24;13.40;;;3.75;;
27543;SDS011;17996;51.056;3.656;2022-08-03T06:26:50;9.73;;;2.75;;
27543;SDS011;17996;51.056;3.656;2022-08-03T06:29:15;21.40;;;2.70;;
27543;SDS011;17996;51.056;3.656;2022-08-03T06:31:41;17.60;;;3.13;;
27543;SDS011;17996;51.056;3.656;2022-08-03T06:34:07;18.25;;;3.10;;
27543;SDS011;17996;51.056;3.656;2022-08-03T06:36:32;12.35;;;3.00;;
27543;SDS011;17996;51.056;3.656;2022-08-03T06:38:58;23.55;;;3.45;;
27543;SDS011;17996;51.056;3.656;2022-08-03T06:41:25;16.38;;;3.35;;
27543;SDS011;17996;51.056;3.656;2022-08-03T06:43:51;16.75;;;3.78;;
27543;SDS011;17996;51.056;3.656;2022-08-03T06:46:18;17.70;;;4.13;;
27543;SDS011;17996;51.056;3.656;2022-08-03T06:48:43;15.48;;;3.70;;
27543;SDS011;17996;51.056;3.656;2022-08-03T06:51:09;25.15;;;3.05;;
27543;SDS011;17996;51.056;3.656;2022-08-03T06:53:35;16.60;;;4.05;;
27543;SDS011;17996;51.056;3.656;2022-08-03T06:56:01;18.70;;;3.90;;
27543;SDS011;17996;51.056;3.656;2022-08-03T06:58:29;19.60;;;3.63;;
27543;SDS011;17996;51.056;3.656;2022-08-03T07:00:54;15.55;;;3.15;;
27543;SDS011;17996;51.056;3.656;2022-08-03T07:03:20;20.58;;;3.20;;
27543;SDS011;17996;51.056;3.656;2022-08-03T07:05:46;20.88;;;4.97;;
27543;SDS011;17996;51.056;3.656;2022-08-03T07:08:13;17.08;;;3.92;;
27543;SDS011;17996;51.056;3.656;2022-08-03T07:10:39;24.63;;;3.63;;
27543;SDS011;17996;51.056;3.656;2022-08-03T07:13:04;25.83;;;4.05;;
27543;SDS011;17996;51.056;3.656;2022-08-03T07:15:31;19.77;;;4.25;;
27543;SDS011;17996;51.056;3.656;2022-08-03T07:17:59;23.73;;;3.85;;
27543;SDS011;17996;51.056;3.656;2022-08-03T07:20:24;20.48;;;4.22;;
27543;SDS011;17996;51.056;3.656;2022-08-03T07:22:50;25.30;;;4.10;;
27543;SDS011;17996;51.056;3.656;2022-08-03T07:25:16;15.77;;;3.75;;
27543;SDS011;17996;51.056;3.656;2022-08-03T07:27:42;16.85;;;3.90;;
27543;SDS011;17996;51.056;3.656;2022-08-03T07:30:09;11.02;;;2.80;;
27543;SDS011;17996;51.056;3.656;2022-08-03T07:32:35;27.58;;;4.97;;
27543;SDS011;17996;51.056;3.656;2022-08-03T07:35:01;15.27;;;3.30;;
27543;SDS011;17996;51.056;3.656;2022-08-03T07:37:28;15.77;;;4.50;;
27543;SDS011;17996;51.056;3.656;2022-08-03T07:39:54;20.95;;;4.45;;
27543;SDS011;17996;51.056;3.656;2022-08-03T07:42:20;13.00;;;3.80;;
27543;SDS011;17996;51.056;3.656;2022-08-03T07:44:48;22.70;;;4.57;;
27543;SDS011;17996;51.056;3.656;2022-08-03T07:47:19;17.70;;;3.50;;
27543;SDS011;17996;51.056;3.656;2022-08-03T07:49:47;19.23;;;3.95;;
27543;SDS011;17996;51.056;3.656;2022-08-03T07:52:12;14.25;;;3.40;;
27543;SDS011;17996;51.056;3.656;2022-08-03T07:54:57;15.55;;;4.13;;
27543;SDS011;17996;51.056;3.656;2022-08-03T07:57:22;21.67;;;4.03;;
27543;SDS011;17996;51.056;3.656;2022-08-03T07:59:48;23.70;;;4.70;;
27543;SDS011;17996;51.056;3.656;2022-08-03T08:02:14;17.92;;;4.35;;
27543;SDS011;17996;51.056;3.656;2022-08-03T08:04:39;26.88;;;4.43;;
27543;SDS011;17996;51.056;3.656;2022-08-03T08:07:06;22.42;;;4.05;;
27543;SDS011;17996;51.056;3.656;2022-08-03T08:09:32;26.88;;;4.50;;
27543;SDS011;17996;51.056;3.656;2022-08-03T08:11:58;26.25;;;4.72;;
27543;SDS011;17996;51.056;3.656;2022-08-03T08:14:23;31.27;;;4.82;;
27543;SDS011;17996;51.056;3.656;2022-08-03T08:16:49;18.38;;;3.90;;
27543;SDS011;17996;51.056;3.656;2022-08-03T08:19:15;21.85;;;4.15;;
27543;SDS011;17996;51.056;3.656;2022-08-03T08:21:44;27.95;;;4.43;;
27543;SDS011;17996;51.056;3.656;2022-08-03T08:24:10;15.02;;;3.05;;
27543;SDS011;17996;51.056;3.656;2022-08-03T08:26:36;24.73;;;3.85;;
27543;SDS011;17996;51.056;3.656;2022-08-03T08:29:02;16.58;;;3.97;;
27543;SDS011;17996;51.056;3.656;2022-08-03T08:31:28;17.90;;;4.07;;
27543;SDS011;17996;51.056;3.656;2022-08-03T08:33:54;19.90;;;4.05;;
27543;SDS011;17996;51.056;3.656;2022-08-03T08:36:20;21.38;;;4.70;;
27543;SDS011;17996;51.056;3.656;2022-08-03T08:38:46;20.65;;;4.40;;
27543;SDS011;17996;51.056;3.656;2022-08-03T08:41:12;20.15;;;4.85;;
27543;SDS011;17996;51.056;3.656;2022-08-03T08:43:39;22.10;;;3.85;;
27543;SDS011;17996;51.056;3.656;2022-08-03T08:46:05;23.45;;;4.55;;
27543;SDS011;17996;51.056;3.656;2022-08-03T08:48:32;22.80;;;3.72;;
27543;SDS011;17996;51.056;3.656;2022-08-03T08:51:02;19.63;;;3.60;;
27543;SDS011;17996;51.056;3.656;2022-08-03T08:53:29;20.80;;;3.90;;
27543;SDS011;17996;51.056;3.656;2022-08-03T08:55:59;17.75;;;3.38;;
27543;SDS011;17996;51.056;3.656;2022-08-03T08:58:28;17.95;;;3.85;;
27543;SDS011;17996;51.056;3.656;2022-08-03T09:00:58;17.17;;;3.92;;
27543;SDS011;17996;51.056;3.656;2022-08-03T09:03:24;30.40;;;4.43;;
27543;SDS011;17996;51.056;3.656;2022-08-03T09:05:49;26.48;;;4.53;;
27543;SDS011;17996;51.056;3.656;2022-08-03T09:08:15;29.98;;;3.92;;
27543;SDS011;17996;51.056;3.656;2022-08-03T09:10:42;25.98;;;4.40;;
27543;SDS011;17996;51.056;3.656;2022-08-03T09:13:08;18.45;;;3.40;;
27543;SDS011;17996;51.056;3.656;2022-08-03T09:15:33;23.98;;;3.90;;
27543;SDS011;17996;51.056;3.656;2022-08-03T09:18:00;20.23;;;4.00;;
27543;SDS011;17996;51.056;3.656;2022-08-03T09:20:29;18.10;;;4.45;;
27543;SDS011;17996;51.056;3.656;2022-08-03T09:23:00;28.67;;;4.07;;
27543;SDS011;17996;51.056;3.656;2022-08-03T09:28:06;21.65;;;4.10;;
27543;SDS011;17996;51.056;3.656;2022-08-03T09:30:33;18.63;;;3.95;;
27543;SDS011;17996;51.056;3.656;2022-08-03T09:33:00;16.08;;;3.53;;
27543;SDS011;17996;51.056;3.656;2022-08-03T09:35:30;28.92;;;3.88;;
27543;SDS011;17996;51.056;3.656;2022-08-03T09:38:12;21.98;;;3.42;;
27543;SDS011;17996;51.056;3.656;2022-08-03T09:40:39;16.88;;;3.22;;
27543;SDS011;17996;51.056;3.656;2022-08-03T09:43:06;15.98;;;3.30;;
27543;SDS011;17996;51.056;3.656;2022-08-03T09:45:34;17.05;;;3.50;;
27543;SDS011;17996;51.056;3.656;2022-08-03T09:48:19;20.02;;;3.60;;
27543;SDS011;17996;51.056;3.656;2022-08-03T09:50:52;20.60;;;3.30;;
27543;SDS011;17996;51.056;3.656;2022-08-03T09:53:28;16.30;;;2.90;;
27543;SDS011;17996;51.056;3.656;2022-08-03T09:55:58;16.15;;;2.97;;
27543;SDS011;17996;51.056;3.656;2022-08-03T09:58:25;20.25;;;3.05;;
27543;SDS011;17996;51.056;3.656;2022-08-03T10:01:00;17.50;;;3.42;;
27543;SDS011;17996;51.056;3.656;2022-08-03T10:03:33;16.83;;;4.00;;
27543;SDS011;17996;51.056;3.656;2022-08-03T10:06:20;16.13;;;4.15;;
27543;SDS011;17996;51.056;3.656;2022-08-03T10:09:11;16.20;;;2.47;;
27543;SDS011;17996;51.056;3.656;2022-08-03T10:11:36;15.98;;;3.10;;
27543;SDS011;17996;51.056;3.656;2022-08-03T10:14:04;17.73;;;3.50;;
27543;SDS011;17996;51.056;3.656;2022-08-03T10:16:32;16.27;;;2.60;;
27543;SDS011;17996;51.056;3.656;2022-08-03T10:19:00;13.63;;;2.58;;
27543;SDS011;17996;51.056;3.656;2022-08-03T10:21:30;12.40;;;3.03;;
27543;SDS011;17996;51.056;3.656;2022-08-03T10:23:59;16.40;;;3.45;;
27543;SDS011;17996;51.056;3.656;2022-08-03T10:26:30;14.13;;;3.17;;
27543;SDS011;17996;51.056;3.656;2022-08-03T10:28:56;13.30;;;2.42;;
27543;SDS011;17996;51.056;3.656;2022-08-03T10:31:25;15.90;;;3.50;;
27543;SDS011;17996;51.056;3.656;2022-08-03T10:34:01;22.58;;;3.38;;
27543;SDS011;17996;51.056;3.656;2022-08-03T10:36:33;24.27;;;3.63;;
27543;SDS011;17996;51.056;3.656;2022-08-03T10:39:00;11.82;;;3.40;;
27543;SDS011;17996;51.056;3.656;2022-08-03T10:41:29;15.07;;;3.03;;
27543;SDS011;17996;51.056;3.656;2022-08-03T10:44:09;18.08;;;2.38;;
27543;SDS011;17996;51.056;3.656;2022-08-03T10:46:39;12.77;;;3.53;;
27543;SDS011;17996;51.056;3.656;2022-08-03T10:49:07;10.98;;;2.40;;
27543;SDS011;17996;51.056;3.656;2022-08-03T10:51:36;17.17;;;4.13;;
27543;SDS011;17996;51.056;3.656;2022-08-03T10:54:02;19.25;;;2.95;;
27543;SDS011;17996;51.056;3.656;2022-08-03T10:59:15;16.90;;;3.45;;
27543;SDS011;17996;51.056;3.656;2022-08-03T11:01:48;12.98;;;2.80;;
27543;SDS011;17996;51.056;3.656;2022-08-03T11:04:17;8.68;;;2.40;;
27543;SDS011;17996;51.056;3.656;2022-08-03T11:06:44;14.52;;;2.45;;
27543;SDS011;17996;51.056;3.656;2022-08-03T11:11:41;13.55;;;3.10;;
27543;SDS011;17996;51.056;3.656;2022-08-03T11:14:17;14.40;;;2.97;;
27543;SDS011;17996;51.056;3.656;2022-08-03T11:16:46;11.82;;;2.53;;
27543;SDS011;17996;51.056;3.656;2022-08-03T11:19:15;11.82;;;2.47;;
27543;SDS011;17996;51.056;3.656;2022-08-03T11:35:19;11.48;;;2.08;;
27543;SDS011;17996;51.056;3.656;2022-08-03T11:42:59;15.90;;;3.38;;
27543;SDS011;17996;51.056;3.656;2022-08-03T11:45:25;11.32;;;2.65;;
27543;SDS011;17996;51.056;3.656;2022-08-03T11:47:54;12.10;;;3.08;;
27543;SDS011;17996;51.056;3.656;2022-08-03T11:50:20;8.60;;;2.40;;
27543;SDS011;17996;51.056;3.656;2022-08-03T11:52:47;15.52;;;3.22;;
27543;SDS011;17996;51.056;3.656;2022-08-03T11:55:15;16.10;;;3.05;;
27543;SDS011;17996;51.056;3.656;2022-08-03T11:57:45;14.63;;;3.05;;
27543;SDS011;17996;51.056;3.656;2022-08-03T12:00:44;13.15;;;2.47;;
27543;SDS011;17996;51.056;3.656;2022-08-03T12:03:07;12.45;;;2.90;;
27543;SDS011;17996;51.056;3.656;2022-08-03T12:08:14;9.98;;;1.95;;
27543;SDS011;17996;51.056;3.656;2022-08-03T12:13:14;13.98;;;2.55;;
27543;SDS011;17996;51.056;3.656;2022-08-03T12:15:41;15.63;;;3.28;;
27543;SDS011;17996;51.056;3.656;2022-08-03T12:18:14;17.80;;;2.97;;
27543;SDS011;17996;51.056;3.656;2022-08-03T12:20:41;9.50;;;2.22;;
27543;SDS011;17996;51.056;3.656;2022-08-03T12:23:07;9.80;;;2.17;;
27543;SDS011;17996;51.056;3.656;2022-08-03T12:25:34;11.65;;;2.05;;
27543;SDS011;17996;51.056;3.656;2022-08-03T12:28:08;13.10;;;2.83;;
27543;SDS011;17996;51.056;3.656;2022-08-03T12:30:35;21.38;;;3.00;;
27543;SDS011;17996;51.056;3.656;2022-08-03T12:33:15;11.93;;;2.45;;
27543;SDS011;17996;51.056;3.656;2022-08-03T12:36:04;16.13;;;2.78;;
27543;SDS011;17996;51.056;3.656;2022-08-03T12:38:31;12.82;;;2.20;;
27543;SDS011;17996;51.056;3.656;2022-08-03T12:40:59;15.77;;;3.10;;
27543;SDS011;17996;51.056;3.656;2022-08-03T12:43:33;5.57;;;2.05;;
27543;SDS011;17996;51.056;3.656;2022-08-03T12:46:15;10.23;;;2.67;;
27543;SDS011;17996;51.056;3.656;2022-08-03T12:51:30;13.23;;;2.25;;
27543;SDS011;17996;51.056;3.656;2022-08-03T12:53:58;12.02;;;2.10;;
27543;SDS011;17996;51.056;3.656;2022-08-03T12:56:24;6.60;;;2.30;;
27543;SDS011;17996;51.056;3.656;2022-08-03T12:58:50;13.30;;;2.22;;
27543;SDS011;17996;51.056;3.656;2022-08-03T13:01:17;13.65;;;2.53;;
27543;SDS011;17996;51.056;3.656;2022-08-03T13:03:44;12.38;;;2.78;;
27543;SDS011;17996;51.056;3.656;2022-08-03T13:06:16;17.10;;;2.22;;
27543;SDS011;17996;51.056;3.656;2022-08-03T13:08:44;17.27;;;2.55;;
27543;SDS011;17996;51.056;3.656;2022-08-03T13:11:22;9.70;;;2.50;;
27543;SDS011;17996;51.056;3.656;2022-08-03T13:13:52;14.60;;;2.83;;
27543;SDS011;17996;51.056;3.656;2022-08-03T13:16:19;10.65;;;2.22;;
27543;SDS011;17996;51.056;3.656;2022-08-03T13:18:46;8.40;;;2.47;;
27543;SDS011;17996;51.056;3.656;2022-08-03T13:21:14;8.43;;;2.35;;
27543;SDS011;17996;51.056;3.656;2022-08-03T13:23:40;8.35;;;1.90;;
27543;SDS011;17996;51.056;3.656;2022-08-03T13:26:06;11.43;;;2.10;;
27543;SDS011;17996;51.056;3.656;2022-08-03T13:28:32;6.32;;;1.90;;
27543;SDS011;17996;51.056;3.656;2022-08-03T13:30:58;7.80;;;2.20;;
27543;SDS011;17996;51.056;3.656;2022-08-03T13:33:23;5.82;;;1.95;;
27543;SDS011;17996;51.056;3.656;2022-08-03T13:35:51;7.60;;;2.00;;
27543;SDS011;17996;51.056;3.656;2022-08-03T13:38:17;10.70;;;2.70;;
27543;SDS011;17996;51.056;3.656;2022-08-03T13:40:43;11.20;;;2.10;;
27543;SDS011;17996;51.056;3.656;2022-08-03T13:43:08;8.15;;;1.98;;
27543;SDS011;17996;51.056;3.656;2022-08-03T13:45:34;10.60;;;2.13;;
27543;SDS011;17996;51.056;3.656;2022-08-03T13:48:00;11.07;;;1.65;;
27543;SDS011;17996;51.056;3.656;2022-08-03T13:50:26;10.27;;;2.30;;
27543;SDS011;17996;51.056;3.656;2022-08-03T13:52:53;13.57;;;1.80;;
27543;SDS011;17996;51.056;3.656;2022-08-03T13:55:19;8.63;;;2.10;;
27543;SDS011;17996;51.056;3.656;2022-08-03T13:57:45;7.88;;;1.98;;
27543;SDS011;17996;51.056;3.656;2022-08-03T14:00:10;8.43;;;2.10;;
27543;SDS011;17996;51.056;3.656;2022-08-03T14:02:36;8.68;;;2.42;;
27543;SDS011;17996;51.056;3.656;2022-08-03T14:05:02;7.80;;;2.13;;
27543;SDS011;17996;51.056;3.656;2022-08-03T14:07:28;10.13;;;1.92;;
27543;SDS011;17996;51.056;3.656;2022-08-03T14:09:53;7.10;;;2.33;;
27543;SDS011;17996;51.056;3.656;2022-08-03T14:12:19;9.50;;;1.92;;
27543;SDS011;17996;51.056;3.656;2022-08-03T14:14:45;7.18;;;2.03;;
27543;SDS011;17996;51.056;3.656;2022-08-03T14:17:10;7.25;;;1.88;;
27543;SDS011;17996;51.056;3.656;2022-08-03T14:19:36;8.65;;;1.60;;
27543;SDS011;17996;51.056;3.656;2022-08-03T14:22:02;6.68;;;1.52;;
27543;SDS011;17996;51.056;3.656;2022-08-03T14:24:27;6.90;;;1.98;;
27543;SDS011;17996;51.056;3.656;2022-08-03T14:26:53;11.88;;;2.08;;
27543;SDS011;17996;51.056;3.656;2022-08-03T14:29:19;8.95;;;1.90;;
27543;SDS011;17996;51.056;3.656;2022-08-03T14:31:44;8.38;;;1.85;;
27543;SDS011;17996;51.056;3.656;2022-08-03T14:34:10;6.10;;;1.55;;
27543;SDS011;17996;51.056;3.656;2022-08-03T14:36:36;12.95;;;2.10;;
27543;SDS011;17996;51.056;3.656;2022-08-03T14:39:01;10.93;;;1.90;;
27543;SDS011;17996;51.056;3.656;2022-08-03T14:41:28;9.65;;;1.70;;
27543;SDS011;17996;51.056;3.656;2022-08-03T14:43:54;5.95;;;1.65;;
27543;SDS011;17996;51.056;3.656;2022-08-03T14:46:20;9.98;;;1.88;;
27543;SDS011;17996;51.056;3.656;2022-08-03T14:48:47;11.10;;;2.22;;
27543;SDS011;17996;51.056;3.656;2022-08-03T14:51:12;11.80;;;1.67;;
27543;SDS011;17996;51.056;3.656;2022-08-03T14:53:38;9.02;;;1.85;;
27543;SDS011;17996;51.056;3.656;2022-08-03T14:56:04;6.13;;;1.90;;
27543;SDS011;17996;51.056;3.656;2022-08-03T14:58:29;10.32;;;2.35;;
27543;SDS011;17996;51.056;3.656;2022-08-03T15:00:56;4.38;;;1.67;;
27543;SDS011;17996;51.056;3.656;2022-08-03T15:03:22;8.70;;;1.67;;
27543;SDS011;17996;51.056;3.656;2022-08-03T15:05:49;8.10;;;1.80;;
27543;SDS011;17996;51.056;3.656;2022-08-03T15:08:15;4.63;;;1.30;;
27543;SDS011;17996;51.056;3.656;2022-08-03T15:10:41;7.97;;;2.30;;
27543;SDS011;17996;51.056;3.656;2022-08-03T15:13:07;3.40;;;1.77;;
27543;SDS011;17996;51.056;3.656;2022-08-03T15:15:32;4.47;;;1.70;;
27543;SDS011;17996;51.056;3.656;2022-08-03T15:17:58;6.43;;;1.60;;
27543;SDS011;17996;51.056;3.656;2022-08-03T15:20:24;10.88;;;1.80;;
27543;SDS011;17996;51.056;3.656;2022-08-03T15:22:49;9.43;;;1.63;;
27543;SDS011;17996;51.056;3.656;2022-08-03T15:25:15;7.57;;;1.90;;
27543;SDS011;17996;51.056;3.656;2022-08-03T15:27:41;6.82;;;1.58;;
27543;SDS011;17996;51.056;3.656;2022-08-03T15:30:06;4.07;;;1.55;;
27543;SDS011;17996;51.056;3.656;2022-08-03T15:32:34;9.40;;;1.45;;
27543;SDS011;17996;51.056;3.656;2022-08-03T15:34:59;11.65;;;1.85;;
27543;SDS011;17996;51.056;3.656;2022-08-03T15:37:26;9.20;;;1.75;;
27543;SDS011;17996;51.056;3.656;2022-08-03T15:39:52;5.72;;;1.50;;
27543;SDS011;17996;51.056;3.656;2022-08-03T15:42:18;7.40;;;1.38;;
27543;SDS011;17996;51.056;3.656;2022-08-03T15:44:44;8.75;;;1.75;;